« Back
NWS Peachtree City, Ga » Text Product » ATL Terminal Aerodrome Forecast


Printer-friendly Version
Current Version              Previous Versions:   1  2  3  4  5  6  7  8  9  

Terminal Aerodrome Forecast

159
FTUS42 KFFC 010700 AAA
TAFATL
TAF AMD
KATL 010754Z 0108/0212 32017G28KT P6SM VCSH BKN040
     FM011000 33020G30KT P6SM BKN025
     FM011600 32022G35KT P6SM BKN040
     FM012000 32020G32KT P6SM SCT040
     FM020000 33015G25KT P6SM SCT070
     FM020600 32012KT P6SM SKC=

USA.gov is the U.S. government's official web portal to all federal, state and local government web resources and services.